sensor_id;sensor_type;location;lat;lon;timestamp;P1;durP1;ratioP1;P2;durP2;ratioP2
32501;SDS011;18952;52.516;13.460;2023-01-08T00:01:11;7.65;;;5.78;;
32501;SDS011;18952;52.516;13.460;2023-01-08T00:03:39;8.32;;;6.47;;
32501;SDS011;18952;52.516;13.460;2023-01-08T00:06:08;11.73;;;9.77;;
32501;SDS011;18952;52.516;13.460;2023-01-08T00:08:39;7.82;;;6.03;;
32501;SDS011;18952;52.516;13.460;2023-01-08T00:11:05;6.65;;;5.70;;
32501;SDS011;18952;52.516;13.460;2023-01-08T00:13:33;6.63;;;5.70;;
32501;SDS011;18952;52.516;13.460;2023-01-08T00:16:06;6.38;;;5.75;;
32501;SDS011;18952;52.516;13.460;2023-01-08T00:18:35;7.80;;;5.63;;
32501;SDS011;18952;52.516;13.460;2023-01-08T00:21:02;7.25;;;6.38;;
32501;SDS011;18952;52.516;13.460;2023-01-08T00:23:29;7.78;;;5.80;;
32501;SDS011;18952;52.516;13.460;2023-01-08T00:25:56;7.68;;;5.85;;
32501;SDS011;18952;52.516;13.460;2023-01-08T00:28:23;7.70;;;5.85;;
32501;SDS011;18952;52.516;13.460;2023-01-08T00:30:49;6.65;;;5.80;;
32501;SDS011;18952;52.516;13.460;2023-01-08T00:33:16;6.97;;;6.13;;
32501;SDS011;18952;52.516;13.460;2023-01-08T00:35:43;6.97;;;5.38;;
32501;SDS011;18952;52.516;13.460;2023-01-08T00:38:10;8.23;;;5.57;;
32501;SDS011;18952;52.516;13.460;2023-01-08T00:40:37;8.40;;;5.97;;
32501;SDS011;18952;52.516;13.460;2023-01-08T00:43:04;8.52;;;6.10;;
32501;SDS011;18952;52.516;13.460;2023-01-08T00:45:32;7.60;;;6.43;;
32501;SDS011;18952;52.516;13.460;2023-01-08T00:47:59;8.25;;;6.13;;
32501;SDS011;18952;52.516;13.460;2023-01-08T00:50:26;8.45;;;5.63;;
32501;SDS011;18952;52.516;13.460;2023-01-08T00:52:52;8.02;;;6.10;;
32501;SDS011;18952;52.516;13.460;2023-01-08T00:55:20;9.25;;;6.60;;
32501;SDS011;18952;52.516;13.460;2023-01-08T00:57:46;8.27;;;7.18;;
32501;SDS011;18952;52.516;13.460;2023-01-08T01:00:14;9.82;;;7.00;;
32501;SDS011;18952;52.516;13.460;2023-01-08T01:02:43;9.55;;;7.10;;
32501;SDS011;18952;52.516;13.460;2023-01-08T01:05:12;9.35;;;6.70;;
32501;SDS011;18952;52.516;13.460;2023-01-08T01:07:40;8.32;;;6.35;;
32501;SDS011;18952;52.516;13.460;2023-01-08T01:10:08;10.35;;;6.30;;
32501;SDS011;18952;52.516;13.460;2023-01-08T01:12:36;8.90;;;6.75;;
32501;SDS011;18952;52.516;13.460;2023-01-08T01:15:07;6.60;;;5.90;;
32501;SDS011;18952;52.516;13.460;2023-01-08T01:17:37;7.88;;;6.50;;
32501;SDS011;18952;52.516;13.460;2023-01-08T01:20:06;10.63;;;6.72;;
32501;SDS011;18952;52.516;13.460;2023-01-08T01:22:34;9.77;;;6.70;;
32501;SDS011;18952;52.516;13.460;2023-01-08T01:25:02;9.45;;;7.28;;
32501;SDS011;18952;52.516;13.460;2023-01-08T01:27:29;10.38;;;7.10;;
32501;SDS011;18952;52.516;13.460;2023-01-08T01:29:56;10.68;;;7.45;;
32501;SDS011;18952;52.516;13.460;2023-01-08T01:32:22;9.93;;;7.70;;
32501;SDS011;18952;52.516;13.460;2023-01-08T01:34:49;10.88;;;8.27;;
32501;SDS011;18952;52.516;13.460;2023-01-08T01:37:16;8.10;;;7.30;;
32501;SDS011;18952;52.516;13.460;2023-01-08T01:39:43;8.02;;;7.22;;
32501;SDS011;18952;52.516;13.460;2023-01-08T01:42:13;8.00;;;6.95;;
32501;SDS011;18952;52.516;13.460;2023-01-08T01:44:42;8.18;;;6.82;;
32501;SDS011;18952;52.516;13.460;2023-01-08T01:49:45;10.90;;;7.78;;
32501;SDS011;18952;52.516;13.460;2023-01-08T01:52:20;8.75;;;7.40;;
32501;SDS011;18952;52.516;13.460;2023-01-08T01:54:49;9.30;;;7.13;;
32501;SDS011;18952;52.516;13.460;2023-01-08T01:57:17;8.75;;;7.60;;
32501;SDS011;18952;52.516;13.460;2023-01-08T01:59:44;10.20;;;7.97;;
32501;SDS011;18952;52.516;13.460;2023-01-08T02:02:13;9.15;;;8.20;;
32501;SDS011;18952;52.516;13.460;2023-01-08T02:04:42;9.00;;;7.80;;
32501;SDS011;18952;52.516;13.460;2023-01-08T02:07:14;7.53;;;6.82;;
32501;SDS011;18952;52.516;13.460;2023-01-08T02:12:22;8.68;;;7.78;;
32501;SDS011;18952;52.516;13.460;2023-01-08T02:15:02;8.35;;;7.55;;
32501;SDS011;18952;52.516;13.460;2023-01-08T02:20:36;10.32;;;8.20;;
32501;SDS011;18952;52.516;13.460;2023-01-08T02:28:51;9.57;;;8.13;;
32501;SDS011;18952;52.516;13.460;2023-01-08T02:31:30;11.13;;;8.38;;
32501;SDS011;18952;52.516;13.460;2023-01-08T02:33:58;10.25;;;8.52;;
32501;SDS011;18952;52.516;13.460;2023-01-08T02:41:31;10.85;;;8.77;;
32501;SDS011;18952;52.516;13.460;2023-01-08T02:44:09;10.15;;;8.80;;
32501;SDS011;18952;52.516;13.460;2023-01-08T02:46:42;11.07;;;8.82;;
32501;SDS011;18952;52.516;13.460;2023-01-08T02:49:10;10.90;;;8.80;;
32501;SDS011;18952;52.516;13.460;2023-01-08T02:51:41;12.35;;;9.43;;
32501;SDS011;18952;52.516;13.460;2023-01-08T02:54:15;14.35;;;10.05;;
32501;SDS011;18952;52.516;13.460;2023-01-08T02:56:48;10.43;;;9.30;;
32501;SDS011;18952;52.516;13.460;2023-01-08T02:59:18;12.45;;;9.32;;
32501;SDS011;18952;52.516;13.460;2023-01-08T03:01:47;10.18;;;9.10;;
32501;SDS011;18952;52.516;13.460;2023-01-08T03:04:16;10.93;;;9.55;;
32501;SDS011;18952;52.516;13.460;2023-01-08T03:06:45;10.23;;;9.13;;
32501;SDS011;18952;52.516;13.460;2023-01-08T03:09:12;13.98;;;9.43;;
32501;SDS011;18952;52.516;13.460;2023-01-08T03:12:03;11.77;;;9.30;;
32501;SDS011;18952;52.516;13.460;2023-01-08T03:14:42;12.23;;;9.18;;
32501;SDS011;18952;52.516;13.460;2023-01-08T03:17:13;13.18;;;9.80;;
32501;SDS011;18952;52.516;13.460;2023-01-08T03:19:51;12.52;;;9.75;;
32501;SDS011;18952;52.516;13.460;2023-01-08T03:22:20;11.07;;;9.38;;
32501;SDS011;18952;52.516;13.460;2023-01-08T03:24:49;10.55;;;9.55;;
32501;SDS011;18952;52.516;13.460;2023-01-08T03:27:21;11.25;;;9.63;;
32501;SDS011;18952;52.516;13.460;2023-01-08T03:29:53;12.85;;;10.30;;
32501;SDS011;18952;52.516;13.460;2023-01-08T03:32:23;11.13;;;9.52;;
32501;SDS011;18952;52.516;13.460;2023-01-08T03:34:52;11.15;;;9.00;;
32501;SDS011;18952;52.516;13.460;2023-01-08T03:37:25;10.35;;;9.25;;
32501;SDS011;18952;52.516;13.460;2023-01-08T03:39:59;12.15;;;9.93;;
32501;SDS011;18952;52.516;13.460;2023-01-08T03:42:49;11.48;;;9.23;;
32501;SDS011;18952;52.516;13.460;2023-01-08T03:45:16;10.82;;;9.70;;
32501;SDS011;18952;52.516;13.460;2023-01-08T03:47:43;11.20;;;10.10;;
32501;SDS011;18952;52.516;13.460;2023-01-08T03:50:13;11.52;;;10.20;;
32501;SDS011;18952;52.516;13.460;2023-01-08T03:52:45;11.25;;;10.15;;
32501;SDS011;18952;52.516;13.460;2023-01-08T03:55:12;11.73;;;10.52;;
32501;SDS011;18952;52.516;13.460;2023-01-08T03:57:38;12.48;;;10.23;;
32501;SDS011;18952;52.516;13.460;2023-01-08T04:00:05;11.00;;;9.80;;
32501;SDS011;18952;52.516;13.460;2023-01-08T04:02:32;12.88;;;10.23;;
32501;SDS011;18952;52.516;13.460;2023-01-08T04:04:59;13.07;;;10.55;;
32501;SDS011;18952;52.516;13.460;2023-01-08T04:07:26;14.70;;;10.52;;
32501;SDS011;18952;52.516;13.460;2023-01-08T04:09:53;12.20;;;10.75;;
32501;SDS011;18952;52.516;13.460;2023-01-08T04:12:19;14.93;;;10.43;;
32501;SDS011;18952;52.516;13.460;2023-01-08T04:14:46;13.32;;;10.55;;
32501;SDS011;18952;52.516;13.460;2023-01-08T04:17:13;11.73;;;10.50;;
32501;SDS011;18952;52.516;13.460;2023-01-08T04:19:40;12.85;;;11.00;;
32501;SDS011;18952;52.516;13.460;2023-01-08T04:22:10;11.85;;;10.65;;
32501;SDS011;18952;52.516;13.460;2023-01-08T04:24:37;12.63;;;9.93;;
32501;SDS011;18952;52.516;13.460;2023-01-08T04:27:04;11.70;;;10.48;;
32501;SDS011;18952;52.516;13.460;2023-01-08T04:29:31;12.02;;;10.82;;
32501;SDS011;18952;52.516;13.460;2023-01-08T04:31:58;13.77;;;10.98;;
32501;SDS011;18952;52.516;13.460;2023-01-08T04:34:25;13.93;;;11.02;;
32501;SDS011;18952;52.516;13.460;2023-01-08T04:36:52;12.80;;;11.00;;
32501;SDS011;18952;52.516;13.460;2023-01-08T04:39:18;14.98;;;11.32;;
32501;SDS011;18952;52.516;13.460;2023-01-08T04:41:45;11.82;;;10.60;;
32501;SDS011;18952;52.516;13.460;2023-01-08T04:44:12;12.20;;;10.68;;
32501;SDS011;18952;52.516;13.460;2023-01-08T04:46:39;13.13;;;11.55;;
32501;SDS011;18952;52.516;13.460;2023-01-08T04:49:05;13.80;;;10.95;;
32501;SDS011;18952;52.516;13.460;2023-01-08T04:51:32;13.65;;;11.07;;
32501;SDS011;18952;52.516;13.460;2023-01-08T04:53:59;12.95;;;10.32;;
32501;SDS011;18952;52.516;13.460;2023-01-08T04:56:25;12.85;;;10.45;;
32501;SDS011;18952;52.516;13.460;2023-01-08T04:58:52;12.27;;;10.68;;
32501;SDS011;18952;52.516;13.460;2023-01-08T05:01:20;12.02;;;10.80;;
32501;SDS011;18952;52.516;13.460;2023-01-08T05:03:52;13.48;;;10.95;;
32501;SDS011;18952;52.516;13.460;2023-01-08T05:06:20;13.00;;;10.88;;
32501;SDS011;18952;52.516;13.460;2023-01-08T05:08:46;12.05;;;10.55;;
32501;SDS011;18952;52.516;13.460;2023-01-08T05:11:13;12.48;;;10.80;;
32501;SDS011;18952;52.516;13.460;2023-01-08T05:13:40;11.30;;;10.10;;
32501;SDS011;18952;52.516;13.460;2023-01-08T05:16:07;12.00;;;10.70;;
32501;SDS011;18952;52.516;13.460;2023-01-08T05:18:34;11.40;;;10.20;;
32501;SDS011;18952;52.516;13.460;2023-01-08T05:21:01;11.63;;;10.52;;
32501;SDS011;18952;52.516;13.460;2023-01-08T05:23:29;11.65;;;10.45;;
32501;SDS011;18952;52.516;13.460;2023-01-08T05:25:57;14.65;;;10.63;;
32501;SDS011;18952;52.516;13.460;2023-01-08T05:28:28;11.95;;;10.73;;
32501;SDS011;18952;52.516;13.460;2023-01-08T05:30:55;12.55;;;10.45;;
32501;SDS011;18952;52.516;13.460;2023-01-08T05:33:22;12.60;;;10.40;;
32501;SDS011;18952;52.516;13.460;2023-01-08T05:35:49;12.93;;;10.65;;
32501;SDS011;18952;52.516;13.460;2023-01-08T05:38:16;11.85;;;10.65;;
32501;SDS011;18952;52.516;13.460;2023-01-08T05:40:43;15.63;;;10.32;;
32501;SDS011;18952;52.516;13.460;2023-01-08T05:43:10;10.68;;;9.60;;
32501;SDS011;18952;52.516;13.460;2023-01-08T05:45:37;11.60;;;10.43;;
32501;SDS011;18952;52.516;13.460;2023-01-08T05:48:04;11.45;;;10.25;;
32501;SDS011;18952;52.516;13.460;2023-01-08T05:50:32;10.80;;;9.60;;
32501;SDS011;18952;52.516;13.460;2023-01-08T05:52:59;11.50;;;10.30;;
32501;SDS011;18952;52.516;13.460;2023-01-08T05:55:25;16.48;;;11.95;;
32501;SDS011;18952;52.516;13.460;2023-01-08T05:57:52;11.48;;;9.90;;
32501;SDS011;18952;52.516;13.460;2023-01-08T06:00:19;14.75;;;10.30;;
32501;SDS011;18952;52.516;13.460;2023-01-08T06:02:46;12.40;;;10.20;;
32501;SDS011;18952;52.516;13.460;2023-01-08T06:05:13;13.18;;;9.50;;
32501;SDS011;18952;52.516;13.460;2023-01-08T06:07:40;11.45;;;9.88;;
32501;SDS011;18952;52.516;13.460;2023-01-08T06:10:07;12.65;;;9.88;;
32501;SDS011;18952;52.516;13.460;2023-01-08T06:12:34;11.38;;;9.50;;
32501;SDS011;18952;52.516;13.460;2023-01-08T06:15:01;10.55;;;9.43;;
32501;SDS011;18952;52.516;13.460;2023-01-08T06:17:29;10.43;;;9.32;;
32501;SDS011;18952;52.516;13.460;2023-01-08T06:19:55;13.68;;;10.55;;
32501;SDS011;18952;52.516;13.460;2023-01-08T06:22:22;10.85;;;9.52;;
32501;SDS011;18952;52.516;13.460;2023-01-08T06:24:49;10.73;;;9.63;;
32501;SDS011;18952;52.516;13.460;2023-01-08T06:27:16;10.63;;;9.45;;
32501;SDS011;18952;52.516;13.460;2023-01-08T06:29:42;11.70;;;9.52;;
32501;SDS011;18952;52.516;13.460;2023-01-08T06:32:09;10.45;;;9.43;;
32501;SDS011;18952;52.516;13.460;2023-01-08T06:34:36;12.38;;;9.73;;
32501;SDS011;18952;52.516;13.460;2023-01-08T06:37:03;9.88;;;8.88;;
32501;SDS011;18952;52.516;13.460;2023-01-08T06:39:30;10.68;;;9.50;;
32501;SDS011;18952;52.516;13.460;2023-01-08T06:41:56;10.50;;;9.43;;
32501;SDS011;18952;52.516;13.460;2023-01-08T06:44:23;11.02;;;9.13;;
32501;SDS011;18952;52.516;13.460;2023-01-08T06:46:50;10.10;;;8.93;;
32501;SDS011;18952;52.516;13.460;2023-01-08T06:49:17;11.02;;;9.20;;
32501;SDS011;18952;52.516;13.460;2023-01-08T06:51:44;10.77;;;9.55;;
32501;SDS011;18952;52.516;13.460;2023-01-08T06:54:11;9.98;;;8.80;;
32501;SDS011;18952;52.516;13.460;2023-01-08T06:56:38;9.13;;;8.23;;
32501;SDS011;18952;52.516;13.460;2023-01-08T06:59:19;8.63;;;7.82;;
32501;SDS011;18952;52.516;13.460;2023-01-08T07:01:46;9.50;;;8.35;;
32501;SDS011;18952;52.516;13.460;2023-01-08T07:04:13;9.32;;;8.43;;
32501;SDS011;18952;52.516;13.460;2023-01-08T07:06:40;9.20;;;7.93;;
32501;SDS011;18952;52.516;13.460;2023-01-08T07:09:08;12.57;;;7.78;;
32501;SDS011;18952;52.516;13.460;2023-01-08T07:11:38;9.80;;;7.88;;
32501;SDS011;18952;52.516;13.460;2023-01-08T07:14:05;8.90;;;8.00;;
32501;SDS011;18952;52.516;13.460;2023-01-08T07:16:32;10.63;;;8.05;;
32501;SDS011;18952;52.516;13.460;2023-01-08T07:18:59;10.10;;;6.85;;
32501;SDS011;18952;52.516;13.460;2023-01-08T07:21:26;8.52;;;7.63;;
32501;SDS011;18952;52.516;13.460;2023-01-08T07:23:53;9.57;;;7.00;;
32501;SDS011;18952;52.516;13.460;2023-01-08T07:26:20;8.75;;;7.18;;
32501;SDS011;18952;52.516;13.460;2023-01-08T07:28:46;8.45;;;7.65;;
32501;SDS011;18952;52.516;13.460;2023-01-08T07:31:13;9.68;;;7.93;;
32501;SDS011;18952;52.516;13.460;2023-01-08T07:33:40;8.10;;;7.30;;
32501;SDS011;18952;52.516;13.460;2023-01-08T07:36:07;14.15;;;7.70;;
32501;SDS011;18952;52.516;13.460;2023-01-08T07:38:34;10.25;;;8.20;;
32501;SDS011;18952;52.516;13.460;2023-01-08T07:41:00;9.45;;;7.00;;
32501;SDS011;18952;52.516;13.460;2023-01-08T07:43:27;9.85;;;7.20;;
32501;SDS011;18952;52.516;13.460;2023-01-08T07:45:54;8.07;;;7.28;;
32501;SDS011;18952;52.516;13.460;2023-01-08T07:48:21;7.53;;;6.80;;
32501;SDS011;18952;52.516;13.460;2023-01-08T07:50:47;8.18;;;7.05;;
32501;SDS011;18952;52.516;13.460;2023-01-08T07:53:14;7.65;;;6.95;;
32501;SDS011;18952;52.516;13.460;2023-01-08T07:55:41;9.57;;;8.00;;
32501;SDS011;18952;52.516;13.460;2023-01-08T07:58:08;8.30;;;7.47;;
32501;SDS011;18952;52.516;13.460;2023-01-08T08:00:37;9.60;;;7.43;;
32501;SDS011;18952;52.516;13.460;2023-01-08T08:03:05;9.23;;;8.05;;
32501;SDS011;18952;52.516;13.460;2023-01-08T08:05:33;9.20;;;7.72;;
32501;SDS011;18952;52.516;13.460;2023-01-08T08:08:00;8.77;;;7.88;;
32501;SDS011;18952;52.516;13.460;2023-01-08T08:10:27;8.68;;;7.40;;
32501;SDS011;18952;52.516;13.460;2023-01-08T08:12:54;9.20;;;8.30;;
32501;SDS011;18952;52.516;13.460;2023-01-08T08:15:21;10.40;;;7.82;;
32501;SDS011;18952;52.516;13.460;2023-01-08T08:17:48;8.13;;;7.32;;
32501;SDS011;18952;52.516;13.460;2023-01-08T08:20:15;9.23;;;7.70;;
32501;SDS011;18952;52.516;13.460;2023-01-08T08:22:42;8.55;;;7.63;;
32501;SDS011;18952;52.516;13.460;2023-01-08T08:25:09;10.63;;;8.65;;
32501;SDS011;18952;52.516;13.460;2023-01-08T08:27:36;10.00;;;8.00;;
32501;SDS011;18952;52.516;13.460;2023-01-08T08:30:03;10.15;;;8.50;;
32501;SDS011;18952;52.516;13.460;2023-01-08T08:32:30;10.00;;;8.65;;
32501;SDS011;18952;52.516;13.460;2023-01-08T08:34:57;10.20;;;8.90;;
32501;SDS011;18952;52.516;13.460;2023-01-08T08:37:24;11.15;;;9.05;;
32501;SDS011;18952;52.516;13.460;2023-01-08T08:39:51;8.75;;;7.95;;
32501;SDS011;18952;52.516;13.460;2023-01-08T08:42:17;12.60;;;9.02;;
32501;SDS011;18952;52.516;13.460;2023-01-08T08:44:44;9.57;;;8.50;;
32501;SDS011;18952;52.516;13.460;2023-01-08T08:47:11;11.52;;;8.57;;
32501;SDS011;18952;52.516;13.460;2023-01-08T08:49:38;9.90;;;8.00;;
32501;SDS011;18952;52.516;13.460;2023-01-08T08:52:05;8.77;;;7.82;;
32501;SDS011;18952;52.516;13.460;2023-01-08T08:54:32;8.57;;;7.50;;
32501;SDS011;18952;52.516;13.460;2023-01-08T08:56:59;9.75;;;7.90;;
32501;SDS011;18952;52.516;13.460;2023-01-08T08:59:26;9.73;;;7.70;;
32501;SDS011;18952;52.516;13.460;2023-01-08T09:01:52;9.10;;;7.95;;
32501;SDS011;18952;52.516;13.460;2023-01-08T09:04:19;9.35;;;8.05;;
32501;SDS011;18952;52.516;13.460;2023-01-08T09:06:46;7.90;;;7.07;;
32501;SDS011;18952;52.516;13.460;2023-01-08T09:09:13;8.32;;;7.53;;
32501;SDS011;18952;52.516;13.460;2023-01-08T09:11:39;8.35;;;7.45;;
32501;SDS011;18952;52.516;13.460;2023-01-08T09:14:06;9.23;;;7.70;;
32501;SDS011;18952;52.516;13.460;2023-01-08T09:16:33;8.90;;;7.78;;
32501;SDS011;18952;52.516;13.460;2023-01-08T09:19:00;7.68;;;6.93;;
32501;SDS011;18952;52.516;13.460;2023-01-08T09:21:27;8.65;;;6.95;;
32501;SDS011;18952;52.516;13.460;2023-01-08T09:23:55;8.95;;;7.15;;
32501;SDS011;18952;52.516;13.460;2023-01-08T09:26:22;8.38;;;6.72;;
32501;SDS011;18952;52.516;13.460;2023-01-08T09:28:48;8.02;;;7.22;;
32501;SDS011;18952;52.516;13.460;2023-01-08T09:31:15;9.88;;;7.65;;
32501;SDS011;18952;52.516;13.460;2023-01-08T09:33:42;8.30;;;7.40;;
32501;SDS011;18952;52.516;13.460;2023-01-08T09:36:12;10.77;;;8.00;;
32501;SDS011;18952;52.516;13.460;2023-01-08T09:38:39;8.65;;;7.75;;
32501;SDS011;18952;52.516;13.460;2023-01-08T09:41:27;11.65;;;7.47;;
32501;SDS011;18952;52.516;13.460;2023-01-08T09:43:55;9.07;;;7.75;;
32501;SDS011;18952;52.516;13.460;2023-01-08T09:46:25;7.57;;;6.65;;
32501;SDS011;18952;52.516;13.460;2023-01-08T09:48:58;10.73;;;7.85;;
32501;SDS011;18952;52.516;13.460;2023-01-08T09:51:38;10.48;;;6.80;;
32501;SDS011;18952;52.516;13.460;2023-01-08T09:54:05;9.82;;;7.75;;
32501;SDS011;18952;52.516;13.460;2023-01-08T09:56:32;8.45;;;7.47;;
32501;SDS011;18952;52.516;13.460;2023-01-08T09:59:00;8.73;;;7.28;;
32501;SDS011;18952;52.516;13.460;2023-01-08T10:01:29;7.22;;;6.53;;
32501;SDS011;18952;52.516;13.460;2023-01-08T10:06:47;8.15;;;6.55;;
32501;SDS011;18952;52.516;13.460;2023-01-08T10:09:18;11.48;;;7.25;;
32501;SDS011;18952;52.516;13.460;2023-01-08T10:11:48;9.75;;;7.50;;
32501;SDS011;18952;52.516;13.460;2023-01-08T10:14:20;11.00;;;7.78;;
32501;SDS011;18952;52.516;13.460;2023-01-08T10:16:51;9.32;;;7.70;;
32501;SDS011;18952;52.516;13.460;2023-01-08T10:19:22;8.80;;;7.32;;
32501;SDS011;18952;52.516;13.460;2023-01-08T10:21:55;11.18;;;7.90;;
32501;SDS011;18952;52.516;13.460;2023-01-08T10:24:32;11.70;;;7.80;;
32501;SDS011;18952;52.516;13.460;2023-01-08T10:27:05;8.65;;;7.40;;
32501;SDS011;18952;52.516;13.460;2023-01-08T10:29:42;10.73;;;9.02;;
32501;SDS011;18952;52.516;13.460;2023-01-08T10:32:22;10.05;;;7.93;;
32501;SDS011;18952;52.516;13.460;2023-01-08T10:34:57;11.65;;;8.50;;
32501;SDS011;18952;52.516;13.460;2023-01-08T10:37:39;13.07;;;8.77;;
32501;SDS011;18952;52.516;13.460;2023-01-08T10:40:19;10.43;;;9.10;;
32501;SDS011;18952;52.516;13.460;2023-01-08T10:43:21;10.80;;;9.55;;
32501;SDS011;18952;52.516;13.460;2023-01-08T10:46:00;9.73;;;8.73;;
32501;SDS011;18952;52.516;13.460;2023-01-08T10:48:32;12.07;;;9.80;;
32501;SDS011;18952;52.516;13.460;2023-01-08T10:51:16;12.10;;;9.95;;
32501;SDS011;18952;52.516;13.460;2023-01-08T10:53:46;12.57;;;11.00;;
32501;SDS011;18952;52.516;13.460;2023-01-08T10:56:19;14.82;;;11.55;;
32501;SDS011;18952;52.516;13.460;2023-01-08T10:58:56;11.75;;;10.45;;
32501;SDS011;18952;52.516;13.460;2023-01-08T11:01:26;11.48;;;9.93;;
32501;SDS011;18952;52.516;13.460;2023-01-08T11:03:59;14.63;;;10.85;;
32501;SDS011;18952;52.516;13.460;2023-01-08T11:06:36;12.93;;;10.75;;
32501;SDS011;18952;52.516;13.460;2023-01-08T11:09:23;13.05;;;10.98;;
32501;SDS011;18952;52.516;13.460;2023-01-08T11:11:53;12.75;;;10.32;;
32501;SDS011;18952;52.516;13.460;2023-01-08T11:14:33;13.85;;;11.43;;
32501;SDS011;18952;52.516;13.460;2023-01-08T11:17:02;12.10;;;10.50;;
32501;SDS011;18952;52.516;13.460;2023-01-08T11:19:36;11.43;;;10.32;;
32501;SDS011;18952;52.516;13.460;2023-01-08T11:22:04;12.07;;;10.50;;
32501;SDS011;18952;52.516;13.460;2023-01-08T11:24:52;11.68;;;10.45;;
32501;SDS011;18952;52.516;13.460;2023-01-08T11:29:57;13.30;;;11.15;;
32501;SDS011;18952;52.516;13.460;2023-01-08T11:32:46;14.73;;;11.10;;
32501;SDS011;18952;52.516;13.460;2023-01-08T11:35:30;12.80;;;10.10;;
32501;SDS011;18952;52.516;13.460;2023-01-08T11:38:05;10.90;;;9.80;;
32501;SDS011;18952;52.516;13.460;2023-01-08T11:40:38;10.85;;;9.65;;
32501;SDS011;18952;52.516;13.460;2023-01-08T11:43:11;13.07;;;9.73;;
32501;SDS011;18952;52.516;13.460;2023-01-08T11:54:07;14.55;;;10.38;;
32501;SDS011;18952;52.516;13.460;2023-01-08T12:05:22;14.30;;;10.15;;
32501;SDS011;18952;52.516;13.460;2023-01-08T12:08:06;11.02;;;9.73;;
32501;SDS011;18952;52.516;13.460;2023-01-08T12:21:49;12.45;;;9.70;;
32501;SDS011;18952;52.516;13.460;2023-01-08T12:33:04;12.55;;;9.85;;
32501;SDS011;18952;52.516;13.460;2023-01-08T12:38:13;13.10;;;10.57;;
32501;SDS011;18952;52.516;13.460;2023-01-08T12:40:54;12.23;;;10.40;;
32501;SDS011;18952;52.516;13.460;2023-01-08T12:43:42;11.05;;;10.02;;
32501;SDS011;18952;52.516;13.460;2023-01-08T12:46:29;12.15;;;10.95;;
32501;SDS011;18952;52.516;13.460;2023-01-08T12:48:58;11.80;;;10.20;;
32501;SDS011;18952;52.516;13.460;2023-01-08T12:59:38;13.85;;;10.00;;
32501;SDS011;18952;52.516;13.460;2023-01-08T13:07:45;11.60;;;10.35;;
32501;SDS011;18952;52.516;13.460;2023-01-08T13:10:31;13.23;;;9.93;;
32501;SDS011;18952;52.516;13.460;2023-01-08T13:13:30;10.63;;;8.68;;
32501;SDS011;18952;52.516;13.460;2023-01-08T13:16:31;11.60;;;9.23;;
32501;SDS011;18952;52.516;13.460;2023-01-08T13:18:55;10.75;;;9.65;;
32501;SDS011;18952;52.516;13.460;2023-01-08T13:22:00;13.35;;;10.05;;
32501;SDS011;18952;52.516;13.460;2023-01-08T13:24:28;14.75;;;10.38;;
32501;SDS011;18952;52.516;13.460;2023-01-08T13:27:10;14.80;;;11.88;;
32501;SDS011;18952;52.516;13.460;2023-01-08T13:29:57;11.95;;;10.05;;
32501;SDS011;18952;52.516;13.460;2023-01-08T13:38:04;11.27;;;9.88;;
32501;SDS011;18952;52.516;13.460;2023-01-08T13:43:12;12.57;;;9.93;;
32501;SDS011;18952;52.516;13.460;2023-01-08T13:48:35;11.95;;;10.68;;
32501;SDS011;18952;52.516;13.460;2023-01-08T13:51:04;15.27;;;12.13;;
32501;SDS011;18952;52.516;13.460;2023-01-08T13:53:35;14.00;;;12.07;;
32501;SDS011;18952;52.516;13.460;2023-01-08T13:56:05;14.88;;;11.40;;
32501;SDS011;18952;52.516;13.460;2023-01-08T13:58:45;14.63;;;11.52;;
32501;SDS011;18952;52.516;13.460;2023-01-08T14:01:36;12.95;;;11.15;;
32501;SDS011;18952;52.516;13.460;2023-01-08T14:04:20;13.73;;;11.07;;
32501;SDS011;18952;52.516;13.460;2023-01-08T14:06:48;13.40;;;11.77;;
32501;SDS011;18952;52.516;13.460;2023-01-08T14:09:22;12.88;;;11.45;;
32501;SDS011;18952;52.516;13.460;2023-01-08T14:11:52;16.77;;;13.75;;
32501;SDS011;18952;52.516;13.460;2023-01-08T14:14:20;14.85;;;13.00;;
32501;SDS011;18952;52.516;13.460;2023-01-08T14:16:50;13.05;;;11.75;;
32501;SDS011;18952;52.516;13.460;2023-01-08T14:19:19;13.25;;;11.77;;
32501;SDS011;18952;52.516;13.460;2023-01-08T14:21:57;19.17;;;15.38;;
32501;SDS011;18952;52.516;13.460;2023-01-08T14:24:28;17.00;;;12.75;;
32501;SDS011;18952;52.516;13.460;2023-01-08T14:26:58;15.25;;;12.38;;
32501;SDS011;18952;52.516;13.460;2023-01-08T14:29:26;17.77;;;13.75;;
32501;SDS011;18952;52.516;13.460;2023-01-08T14:31:55;13.35;;;11.80;;
32501;SDS011;18952;52.516;13.460;2023-01-08T14:34:29;16.63;;;12.85;;
32501;SDS011;18952;52.516;13.460;2023-01-08T14:36:57;14.55;;;12.77;;
32501;SDS011;18952;52.516;13.460;2023-01-08T14:39:33;15.52;;;13.40;;
32501;SDS011;18952;52.516;13.460;2023-01-08T14:42:09;15.15;;;12.60;;
32501;SDS011;18952;52.516;13.460;2023-01-08T14:44:44;17.02;;;12.88;;
32501;SDS011;18952;52.516;13.460;2023-01-08T14:47:27;18.65;;;14.05;;
32501;SDS011;18952;52.516;13.460;2023-01-08T14:49:57;16.27;;;14.30;;
32501;SDS011;18952;52.516;13.460;2023-01-08T14:52:25;16.45;;;14.23;;
32501;SDS011;18952;52.516;13.460;2023-01-08T14:54:53;20.85;;;15.70;;
32501;SDS011;18952;52.516;13.460;2023-01-08T14:57:22;20.10;;;16.50;;
32501;SDS011;18952;52.516;13.460;2023-01-08T14:59:55;19.08;;;16.70;;
32501;SDS011;18952;52.516;13.460;2023-01-08T15:02:25;17.60;;;15.07;;
32501;SDS011;18952;52.516;13.460;2023-01-08T15:07:41;17.08;;;15.23;;
32501;SDS011;18952;52.516;13.460;2023-01-08T15:16:06;18.97;;;16.80;;
32501;SDS011;18952;52.516;13.460;2023-01-08T15:18:46;21.10;;;17.02;;
32501;SDS011;18952;52.516;13.460;2023-01-08T15:21:20;22.50;;;18.75;;
32501;SDS011;18952;52.516;13.460;2023-01-08T15:23:51;18.95;;;16.70;;
32501;SDS011;18952;52.516;13.460;2023-01-08T15:26:21;18.45;;;15.73;;
32501;SDS011;18952;52.516;13.460;2023-01-08T15:29:03;22.35;;;18.52;;
32501;SDS011;18952;52.516;13.460;2023-01-08T15:31:32;24.50;;;21.73;;
32501;SDS011;18952;52.516;13.460;2023-01-08T15:34:14;45.28;;;39.25;;
32501;SDS011;18952;52.516;13.460;2023-01-08T15:36:46;23.48;;;18.30;;
32501;SDS011;18952;52.516;13.460;2023-01-08T15:39:15;23.73;;;19.52;;
32501;SDS011;18952;52.516;13.460;2023-01-08T15:41:42;22.65;;;18.20;;
32501;SDS011;18952;52.516;13.460;2023-01-08T15:44:10;21.77;;;16.70;;
32501;SDS011;18952;52.516;13.460;2023-01-08T15:46:39;18.92;;;16.00;;
32501;SDS011;18952;52.516;13.460;2023-01-08T15:49:07;20.40;;;17.20;;
32501;SDS011;18952;52.516;13.460;2023-01-08T15:51:38;21.92;;;17.65;;
32501;SDS011;18952;52.516;13.460;2023-01-08T15:54:09;23.73;;;17.38;;
32501;SDS011;18952;52.516;13.460;2023-01-08T15:56:40;22.15;;;18.70;;
32501;SDS011;18952;52.516;13.460;2023-01-08T15:59:07;23.10;;;17.33;;
32501;SDS011;18952;52.516;13.460;2023-01-08T16:01:35;28.38;;;17.17;;
32501;SDS011;18952;52.516;13.460;2023-01-08T16:04:02;25.25;;;18.85;;
32501;SDS011;18952;52.516;13.460;2023-01-08T16:06:29;22.10;;;16.92;;
32501;SDS011;18952;52.516;13.460;2023-01-08T16:08:57;22.02;;;18.35;;
32501;SDS011;18952;52.516;13.460;2023-01-08T16:11:25;24.60;;;18.52;;
32501;SDS011;18952;52.516;13.460;2023-01-08T16:13:52;20.02;;;17.90;;
32501;SDS011;18952;52.516;13.460;2023-01-08T16:16:19;20.83;;;17.60;;